createdAt,value
2022-09-18T00:03:40.063Z,2.95
2022-09-18T00:08:49.992Z,2.10
2022-09-18T00:13:57.262Z,2.80
2022-09-18T00:19:04.069Z,2.40
2022-09-18T00:24:11.895Z,2.97
2022-09-18T00:29:19.099Z,2.83
2022-09-18T00:34:25.344Z,2.40
2022-09-18T00:39:32.878Z,2.50
2022-09-18T00:44:41.908Z,2.78
2022-09-18T01:00:12.781Z,2.88
2022-09-18T01:05:29.541Z,2.90
2022-09-18T01:11:01.797Z,2.50
2022-09-18T01:16:18.208Z,3.08
2022-09-18T01:21:31.558Z,3.03
2022-09-18T01:27:06.296Z,2.70
2022-09-18T01:32:23.595Z,2.85
2022-09-18T01:37:37.346Z,2.40
2022-09-18T01:42:47.307Z,2.35
2022-09-18T01:48:00.254Z,2.70
2022-09-18T01:53:16.787Z,3.90
2022-09-18T01:58:28.946Z,2.45
2022-09-18T02:03:45.895Z,2.08
2022-09-18T02:08:54.668Z,2.38
2022-09-18T02:14:09.632Z,2.53
2022-09-18T02:19:59.098Z,1.92
2022-09-18T02:25:09.007Z,2.20
2022-09-18T02:30:15.940Z,2.38
2022-09-18T02:35:25.848Z,2.75
2022-09-18T02:40:42.604Z,2.30
2022-09-18T02:45:58.313Z,2.80
2022-09-18T02:51:17.702Z,2.08
2022-09-18T02:56:35.731Z,2.63
2022-09-18T03:01:45.902Z,2.38
2022-09-18T03:06:55.675Z,1.70
2022-09-18T03:12:02.458Z,2.00
2022-09-18T03:17:13.205Z,2.38
2022-09-18T03:22:21.483Z,2.70
2022-09-18T03:27:27.575Z,1.95
2022-09-18T03:32:34.233Z,2.05
2022-09-18T03:37:41.974Z,1.80
2022-09-18T03:42:51.106Z,1.80
2022-09-18T03:47:57.219Z,2.30
2022-09-18T03:53:05.378Z,2.08
2022-09-18T03:58:32.199Z,1.83
2022-09-18T04:03:47.867Z,2.30
2022-09-18T04:09:13.579Z,1.83
2022-09-18T04:14:29.937Z,2.20
2022-09-18T04:19:37.833Z,1.67
2022-09-18T04:24:47.085Z,2.30
2022-09-18T04:29:53.837Z,2.33
2022-09-18T04:35:02.084Z,1.53
2022-09-18T04:40:12.607Z,1.75
2022-09-18T04:45:20.216Z,1.90
2022-09-18T04:50:26.615Z,1.60
2022-09-18T04:55:52.299Z,1.67
2022-09-18T05:01:00.279Z,1.85
2022-09-18T05:06:07.892Z,1.92
2022-09-18T05:11:15.550Z,1.40
2022-09-18T05:16:22.007Z,1.38
2022-09-18T05:21:44.586Z,2.25
2022-09-18T05:26:53.680Z,1.50
2022-09-18T05:37:07.886Z,1.17
2022-09-18T05:42:15.390Z,1.30
2022-09-18T05:47:22.701Z,1.00
2022-09-18T05:52:29.321Z,1.58
2022-09-18T05:57:36.744Z,1.30
2022-09-18T06:02:43.100Z,1.30
2022-09-18T06:07:57.628Z,1.40
2022-09-18T06:13:09.487Z,1.25
2022-09-18T06:18:21.091Z,1.30
2022-09-18T06:23:29.405Z,1.23
2022-09-18T06:28:44.924Z,0.85
2022-09-18T06:33:51.869Z,1.30
2022-09-18T06:38:58.276Z,1.00
2022-09-18T06:44:05.988Z,1.08
2022-09-18T06:49:16.351Z,1.40
2022-09-18T06:54:24.445Z,1.10
2022-09-18T06:59:31.795Z,1.33
2022-09-18T07:04:39.825Z,1.10
2022-09-18T07:09:46.463Z,0.90
2022-09-18T07:15:12.862Z,1.83
2022-09-18T07:20:21.392Z,0.90
2022-09-18T07:25:28.730Z,1.13
2022-09-18T07:30:36.411Z,1.33
2022-09-18T07:35:43.468Z,1.15
2022-09-18T07:40:53.569Z,1.88
2022-09-18T07:46:13.092Z,1.10
2022-09-18T07:51:22.961Z,2.67
2022-09-18T07:56:32.178Z,0.90
2022-09-18T08:01:40.181Z,1.27
2022-09-18T08:06:51.960Z,1.33
2022-09-18T08:12:14.179Z,1.23
2022-09-18T08:17:48.110Z,1.10
2022-09-18T08:23:05.691Z,1.15
2022-09-18T08:28:12.664Z,1.13
2022-09-18T08:33:41.201Z,0.85
2022-09-18T08:38:49.562Z,0.98
2022-09-18T08:44:37.543Z,1.10
2022-09-18T08:49:50.804Z,1.10
2022-09-18T08:55:05.276Z,0.80
2022-09-18T09:00:24.803Z,1.02
2022-09-18T09:05:53.382Z,1.05
2022-09-18T09:11:09.314Z,1.10
2022-09-18T09:16:19.620Z,0.90
2022-09-18T09:21:53.578Z,0.80
2022-09-18T09:27:08.128Z,0.60
2022-09-18T09:32:40.516Z,0.75
2022-09-18T09:38:43.614Z,0.50
2022-09-18T09:44:08.225Z,0.55
2022-09-18T09:49:22.447Z,0.60
2022-09-18T09:54:33.706Z,0.90
2022-09-18T10:05:15.559Z,1.02
2022-09-18T10:10:36.027Z,0.70
2022-09-18T10:15:48.345Z,0.93
2022-09-18T10:21:12.409Z,0.90
2022-09-18T10:26:29.844Z,1.65
2022-09-18T10:31:50.540Z,0.80
2022-09-18T10:37:02.958Z,0.88
2022-09-18T10:47:30.941Z,0.82
2022-09-18T10:52:40.836Z,1.02
2022-09-18T10:58:15.919Z,0.80
2022-09-18T11:03:44.848Z,0.90
2022-09-18T11:09:04.563Z,0.90
2022-09-18T11:14:23.716Z,0.70
2022-09-18T11:19:41.783Z,1.15
2022-09-18T11:25:27.069Z,0.70
2022-09-18T11:30:58.711Z,0.82
2022-09-18T11:36:11.061Z,0.60
2022-09-18T11:41:26.514Z,0.80
2022-09-18T11:46:48.837Z,0.85
2022-09-18T11:52:03.066Z,0.68
2022-09-18T11:57:23.207Z,0.90
2022-09-18T12:02:38.455Z,1.27
2022-09-18T12:08:02.973Z,1.00
2022-09-18T12:13:40.704Z,0.80
2022-09-18T12:18:57.448Z,1.30
2022-09-18T12:24:04.932Z,1.27
2022-09-18T12:29:31.711Z,1.03
2022-09-18T12:34:50.070Z,1.00
2022-09-18T12:40:24.349Z,1.65
2022-09-18T12:46:02.050Z,1.42
2022-09-18T12:56:56.648Z,1.90
2022-09-18T13:02:17.750Z,1.70
2022-09-18T13:07:32.487Z,1.67
2022-09-18T13:12:48.812Z,1.67
2022-09-18T13:18:10.300Z,1.58
2022-09-18T13:23:24.274Z,1.70
2022-09-18T13:28:31.105Z,1.73
2022-09-18T13:33:38.450Z,1.98
2022-09-18T13:38:50.922Z,1.67
2022-09-18T13:43:58.940Z,1.65
2022-09-18T13:49:20.846Z,2.23
2022-09-18T13:54:30.832Z,1.95
2022-09-18T13:59:49.733Z,1.55
2022-09-18T14:05:34.748Z,1.83
2022-09-18T14:11:15.827Z,1.85
2022-09-18T14:16:41.083Z,2.92
2022-09-18T14:21:47.718Z,1.60
2022-09-18T14:27:51.075Z,2.10
2022-09-18T14:33:07.897Z,2.08
2022-09-18T14:38:30.114Z,1.90
2022-09-18T14:43:40.717Z,1.85
2022-09-18T14:48:51.200Z,2.00
2022-09-18T14:53:59.264Z,1.88
2022-09-18T14:59:09.538Z,1.50
2022-09-18T15:04:20.120Z,1.95
2022-09-18T15:09:31.369Z,1.67
2022-09-18T15:14:46.828Z,1.63
2022-09-18T15:20:02.097Z,2.13
2022-09-18T15:25:15.326Z,1.50
2022-09-18T15:30:25.996Z,2.58
2022-09-18T15:35:37.766Z,1.40
2022-09-18T15:40:44.784Z,1.52
2022-09-18T15:46:06.403Z,1.92
2022-09-18T15:51:19.668Z,1.83
2022-09-18T15:56:26.297Z,1.98
2022-09-18T16:01:37.657Z,1.80
2022-09-18T16:07:03.208Z,1.50
2022-09-18T16:12:44.127Z,1.50
2022-09-18T16:18:25.925Z,1.42
2022-09-18T16:23:35.581Z,1.63
2022-09-18T16:28:45.651Z,1.30
2022-09-18T16:33:58.698Z,1.25
2022-09-18T16:39:09.477Z,1.95
2022-09-18T16:44:18.607Z,1.45
2022-09-18T16:49:30.189Z,1.67
2022-09-18T16:54:36.819Z,2.08
2022-09-18T16:59:45.927Z,3.53
2022-09-18T17:04:53.655Z,2.20
2022-09-18T17:10:00.852Z,2.10
2022-09-18T17:15:16.744Z,1.60
2022-09-18T17:25:32.339Z,1.08
2022-09-18T17:30:43.943Z,0.68
2022-09-18T17:35:52.368Z,0.80
2022-09-18T17:41:06.118Z,0.70
2022-09-18T17:46:15.081Z,0.80
2022-09-18T17:56:35.922Z,0.82
2022-09-18T18:01:47.250Z,0.93
2022-09-18T18:06:55.755Z,1.30
2022-09-18T18:12:01.972Z,1.33
2022-09-18T18:17:10.095Z,1.75
2022-09-18T18:22:22.216Z,2.97
2022-09-18T18:27:29.007Z,2.50
2022-09-18T18:32:36.519Z,2.08
2022-09-18T18:37:46.460Z,2.00
2022-09-18T18:42:53.062Z,1.58
2022-09-18T18:48:09.749Z,0.90
2022-09-18T18:53:20.774Z,0.90
2022-09-18T18:58:33.107Z,1.10
2022-09-18T19:03:43.689Z,1.07
2022-09-18T19:08:58.638Z,0.82
2022-09-18T19:14:06.245Z,0.85
2022-09-18T19:19:13.895Z,1.02
2022-09-18T19:24:24.331Z,1.20
2022-09-18T19:29:53.974Z,1.15
2022-09-18T19:35:00.645Z,0.98
2022-09-18T19:40:14.114Z,0.77
2022-09-18T19:45:26.414Z,0.90
2022-09-18T19:50:36.162Z,0.80
2022-09-18T19:55:47.989Z,0.80
2022-09-18T20:00:55.480Z,1.00
2022-09-18T20:06:02.033Z,0.90
2022-09-18T20:11:10.590Z,1.05
2022-09-18T20:16:17.941Z,0.85
2022-09-18T20:21:25.137Z,0.63
2022-09-18T20:26:33.883Z,1.05
2022-09-18T20:36:48.412Z,1.30
2022-09-18T20:42:01.023Z,1.17
2022-09-18T20:47:07.877Z,1.20
2022-09-18T20:52:14.725Z,0.90
2022-09-18T20:57:22.264Z,0.90
2022-09-18T21:02:35.458Z,0.90
2022-09-18T21:07:43.934Z,0.82
2022-09-18T21:12:51.961Z,1.10
2022-09-18T21:17:58.413Z,0.93
2022-09-18T21:23:21.468Z,0.90
2022-09-18T21:28:29.239Z,2.25
2022-09-18T21:33:36.831Z,0.85
2022-09-18T21:38:43.090Z,1.10
2022-09-18T21:43:51.308Z,1.23
2022-09-18T21:48:57.386Z,1.10
2022-09-18T21:54:05.780Z,1.15
2022-09-18T21:59:13.901Z,1.17
2022-09-18T22:04:24.350Z,1.10
2022-09-18T22:09:33.300Z,1.30
2022-09-18T22:14:41.008Z,1.23
2022-09-18T22:19:46.978Z,1.20
2022-09-18T22:25:12.687Z,1.80
2022-09-18T22:30:20.333Z,1.50
2022-09-18T22:35:26.475Z,1.25
2022-09-18T22:40:32.759Z,1.23
2022-09-18T22:45:40.767Z,1.42
2022-09-18T22:50:46.769Z,1.30
2022-09-18T22:55:52.714Z,1.83
2022-09-18T23:01:09.368Z,1.20
2022-09-18T23:06:15.877Z,1.70
2022-09-18T23:11:24.370Z,1.48
2022-09-18T23:16:33.803Z,1.52
2022-09-18T23:21:41.942Z,1.20
2022-09-18T23:26:50.504Z,1.55
2022-09-18T23:31:58.564Z,2.10
2022-09-18T23:37:04.750Z,1.60
2022-09-18T23:42:11.574Z,2.20
2022-09-18T23:47:19.042Z,2.00
2022-09-18T23:52:25.226Z,2.10
2022-09-18T23:57:32.244Z,2.17
